sensor_id;sensor_type;location;lat;lon;timestamp;pressure;altitude;pressure_sealevel;temperature;humidity
7026;BME280;3554;42.132;24.786;2023-04-01T00:01:03;98488.19;;;11.32;100.00
7026;BME280;3554;42.132;24.786;2023-04-01T00:03:31;98502.56;;;11.54;100.00
7026;BME280;3554;42.132;24.786;2023-04-01T00:05:59;98495.72;;;11.67;100.00
7026;BME280;3554;42.132;24.786;2023-04-01T00:08:27;98495.66;;;11.83;100.00
7026;BME280;3554;42.132;24.786;2023-04-01T00:10:56;98492.94;;;11.84;100.00
7026;BME280;3554;42.132;24.786;2023-04-01T00:13:24;98476.56;;;11.51;100.00
7026;BME280;3554;42.132;24.786;2023-04-01T00:15:52;98485.41;;;11.49;100.00
7026;BME280;3554;42.132;24.786;2023-04-01T00:18:19;98502.81;;;11.50;100.00
7026;BME280;3554;42.132;24.786;2023-04-01T00:20:48;98493.59;;;11.29;100.00
7026;BME280;3554;42.132;24.786;2023-04-01T00:23:15;98498.00;;;11.28;100.00
7026;BME280;3554;42.132;24.786;2023-04-01T00:25:43;98498.94;;;11.57;100.00
7026;BME280;3554;42.132;24.786;2023-04-01T00:28:12;98432.69;;;11.39;100.00
7026;BME280;3554;42.132;24.786;2023-04-01T00:30:39;98502.69;;;11.97;100.00
7026;BME280;3554;42.132;24.786;2023-04-01T00:33:05;98510.28;;;12.01;100.00
7026;BME280;3554;42.132;24.786;2023-04-01T00:35:32;98514.22;;;12.08;100.00
7026;BME280;3554;42.132;24.786;2023-04-01T00:38:00;98505.16;;;12.14;100.00
7026;BME280;3554;42.132;24.786;2023-04-01T00:40:29;98506.34;;;12.08;100.00
7026;BME280;3554;42.132;24.786;2023-04-01T00:42:56;98514.97;;;12.10;100.00
7026;BME280;3554;42.132;24.786;2023-04-01T00:45:31;98515.81;;;12.11;100.00
7026;BME280;3554;42.132;24.786;2023-04-01T00:48:00;98502.13;;;12.06;100.00
7026;BME280;3554;42.132;24.786;2023-04-01T00:50:28;98335.81;;;10.96;100.00
7026;BME280;3554;42.132;24.786;2023-04-01T00:52:57;98508.97;;;11.94;100.00
7026;BME280;3554;42.132;24.786;2023-04-01T00:55:25;98509.75;;;12.10;100.00
7026;BME280;3554;42.132;24.786;2023-04-01T00:57:55;98490.31;;;11.99;100.00
7026;BME280;3554;42.132;24.786;2023-04-01T01:00:23;98507.75;;;12.00;100.00
7026;BME280;3554;42.132;24.786;2023-04-01T01:02:53;98492.09;;;11.98;100.00
7026;BME280;3554;42.132;24.786;2023-04-01T01:05:25;98480.88;;;11.96;100.00
7026;BME280;3554;42.132;24.786;2023-04-01T01:08:01;98489.66;;;11.95;100.00
7026;BME280;3554;42.132;24.786;2023-04-01T01:10:32;98477.09;;;11.72;100.00
7026;BME280;3554;42.132;24.786;2023-04-01T01:13:05;98468.50;;;11.54;100.00
7026;BME280;3554;42.132;24.786;2023-04-01T01:15:37;98494.44;;;11.89;100.00
7026;BME280;3554;42.132;24.786;2023-04-01T01:18:12;98492.38;;;11.94;100.00
7026;BME280;3554;42.132;24.786;2023-04-01T01:21:21;98490.97;;;11.88;100.00
7026;BME280;3554;42.132;24.786;2023-04-01T01:26:53;98497.94;;;11.44;100.00
7026;BME280;3554;42.132;24.786;2023-04-01T01:32:19;98486.38;;;11.48;100.00
7026;BME280;3554;42.132;24.786;2023-04-01T01:37:27;98489.66;;;11.51;100.00
7026;BME280;3554;42.132;24.786;2023-04-01T01:39:59;98477.13;;;11.56;100.00
7026;BME280;3554;42.132;24.786;2023-04-01T01:42:28;98479.16;;;11.81;100.00
7026;BME280;3554;42.132;24.786;2023-04-01T01:44:59;98477.66;;;11.91;100.00
7026;BME280;3554;42.132;24.786;2023-04-01T01:47:27;98472.63;;;11.88;100.00
7026;BME280;3554;42.132;24.786;2023-04-01T01:49:55;98474.56;;;11.70;100.00
7026;BME280;3554;42.132;24.786;2023-04-01T01:52:22;98473.81;;;11.68;100.00
7026;BME280;3554;42.132;24.786;2023-04-01T01:54:53;98469.78;;;11.77;100.00
7026;BME280;3554;42.132;24.786;2023-04-01T01:57:24;98459.97;;;11.80;100.00
7026;BME280;3554;42.132;24.786;2023-04-01T01:59:54;98431.59;;;11.73;100.00
7026;BME280;3554;42.132;24.786;2023-04-01T02:02:24;98458.13;;;11.53;100.00
7026;BME280;3554;42.132;24.786;2023-04-01T02:04:52;98447.63;;;11.53;100.00
7026;BME280;3554;42.132;24.786;2023-04-01T02:07:23;98456.50;;;11.50;100.00
7026;BME280;3554;42.132;24.786;2023-04-01T02:09:54;98451.03;;;11.39;100.00
7026;BME280;3554;42.132;24.786;2023-04-01T02:12:22;98443.66;;;11.32;100.00
7026;BME280;3554;42.132;24.786;2023-04-01T02:14:52;98443.47;;;11.35;100.00
7026;BME280;3554;42.132;24.786;2023-04-01T02:17:22;98421.38;;;11.25;100.00
7026;BME280;3554;42.132;24.786;2023-04-01T02:19:51;98407.03;;;11.30;100.00
7026;BME280;3554;42.132;24.786;2023-04-01T02:22:21;98445.66;;;11.56;100.00
7026;BME280;3554;42.132;24.786;2023-04-01T02:24:49;98460.59;;;11.40;100.00
7026;BME280;3554;42.132;24.786;2023-04-01T02:27:18;98476.03;;;11.45;100.00
7026;BME280;3554;42.132;24.786;2023-04-01T02:29:46;98470.00;;;11.29;100.00
7026;BME280;3554;42.132;24.786;2023-04-01T02:32:14;98460.66;;;11.25;100.00
7026;BME280;3554;42.132;24.786;2023-04-01T02:34:42;98457.00;;;11.27;100.00
7026;BME280;3554;42.132;24.786;2023-04-01T02:37:10;98438.53;;;11.15;100.00
7026;BME280;3554;42.132;24.786;2023-04-01T02:39:37;98383.53;;;10.40;100.00
7026;BME280;3554;42.132;24.786;2023-04-01T02:42:04;98408.56;;;10.75;100.00
7026;BME280;3554;42.132;24.786;2023-04-01T02:44:33;98422.25;;;10.80;100.00
7026;BME280;3554;42.132;24.786;2023-04-01T02:47:00;98422.91;;;10.68;100.00
7026;BME280;3554;42.132;24.786;2023-04-01T02:49:27;98424.25;;;10.59;100.00
7026;BME280;3554;42.132;24.786;2023-04-01T02:51:54;98436.16;;;10.18;100.00
7026;BME280;3554;42.132;24.786;2023-04-01T02:54:21;98437.53;;;10.08;100.00
7026;BME280;3554;42.132;24.786;2023-04-01T02:56:47;98440.25;;;10.39;100.00
7026;BME280;3554;42.132;24.786;2023-04-01T02:59:14;98438.53;;;10.23;100.00
7026;BME280;3554;42.132;24.786;2023-04-01T03:01:42;98440.41;;;10.04;100.00
7026;BME280;3554;42.132;24.786;2023-04-01T03:04:09;98437.75;;;9.88;100.00
7026;BME280;3554;42.132;24.786;2023-04-01T03:06:36;98429.22;;;9.52;100.00
7026;BME280;3554;42.132;24.786;2023-04-01T03:09:02;98439.81;;;9.49;100.00
7026;BME280;3554;42.132;24.786;2023-04-01T03:11:29;98432.31;;;9.26;100.00
7026;BME280;3554;42.132;24.786;2023-04-01T03:13:56;98372.91;;;8.97;100.00
7026;BME280;3554;42.132;24.786;2023-04-01T03:16:23;98427.53;;;9.51;100.00
7026;BME280;3554;42.132;24.786;2023-04-01T03:18:51;98431.75;;;9.53;100.00
7026;BME280;3554;42.132;24.786;2023-04-01T03:21:20;98420.63;;;9.50;100.00
7026;BME280;3554;42.132;24.786;2023-04-01T03:23:48;98424.00;;;9.52;100.00
7026;BME280;3554;42.132;24.786;2023-04-01T03:26:15;98420.50;;;9.68;100.00
7026;BME280;3554;42.132;24.786;2023-04-01T03:28:42;98393.25;;;9.57;100.00
7026;BME280;3554;42.132;24.786;2023-04-01T03:31:09;98381.47;;;9.33;100.00
7026;BME280;3554;42.132;24.786;2023-04-01T03:33:36;98380.84;;;9.45;100.00
7026;BME280;3554;42.132;24.786;2023-04-01T03:36:06;98384.91;;;9.50;100.00
7026;BME280;3554;42.132;24.786;2023-04-01T03:38:32;98381.75;;;9.61;100.00
7026;BME280;3554;42.132;24.786;2023-04-01T03:41:01;98361.19;;;9.70;100.00
7026;BME280;3554;42.132;24.786;2023-04-01T03:43:28;98351.25;;;9.77;100.00
7026;BME280;3554;42.132;24.786;2023-04-01T03:45:55;98333.53;;;9.66;100.00
7026;BME280;3554;42.132;24.786;2023-04-01T03:48:23;98345.38;;;9.56;100.00
7026;BME280;3554;42.132;24.786;2023-04-01T03:50:50;98351.09;;;9.47;100.00
7026;BME280;3554;42.132;24.786;2023-04-01T03:53:19;98346.66;;;9.65;100.00
7026;BME280;3554;42.132;24.786;2023-04-01T03:55:46;98352.28;;;9.90;100.00
7026;BME280;3554;42.132;24.786;2023-04-01T03:58:13;98337.84;;;9.83;100.00
7026;BME280;3554;42.132;24.786;2023-04-01T04:00:40;98350.75;;;9.86;100.00
7026;BME280;3554;42.132;24.786;2023-04-01T04:03:07;98343.06;;;9.67;100.00
7026;BME280;3554;42.132;24.786;2023-04-01T04:05:34;98308.53;;;9.45;100.00
7026;BME280;3554;42.132;24.786;2023-04-01T04:08:01;98332.41;;;9.55;100.00
7026;BME280;3554;42.132;24.786;2023-04-01T04:10:29;98326.78;;;9.62;100.00
7026;BME280;3554;42.132;24.786;2023-04-01T04:12:56;98316.63;;;9.73;100.00
7026;BME280;3554;42.132;24.786;2023-04-01T04:15:23;98343.75;;;10.02;100.00
7026;BME280;3554;42.132;24.786;2023-04-01T04:17:49;98306.16;;;9.89;100.00
7026;BME280;3554;42.132;24.786;2023-04-01T04:20:16;98310.63;;;9.87;100.00
7026;BME280;3554;42.132;24.786;2023-04-01T04:22:43;98313.75;;;9.94;100.00
7026;BME280;3554;42.132;24.786;2023-04-01T04:25:10;98319.72;;;9.96;100.00
7026;BME280;3554;42.132;24.786;2023-04-01T04:27:38;98313.72;;;10.11;100.00
7026;BME280;3554;42.132;24.786;2023-04-01T04:30:06;98314.25;;;10.31;100.00
7026;BME280;3554;42.132;24.786;2023-04-01T04:32:34;98282.88;;;10.31;100.00
7026;BME280;3554;42.132;24.786;2023-04-01T04:35:00;98313.69;;;10.26;100.00
7026;BME280;3554;42.132;24.786;2023-04-01T04:37:27;98312.25;;;10.21;100.00
7026;BME280;3554;42.132;24.786;2023-04-01T04:39:54;98285.53;;;10.16;100.00
7026;BME280;3554;42.132;24.786;2023-04-01T04:42:21;98287.44;;;10.57;100.00
7026;BME280;3554;42.132;24.786;2023-04-01T04:44:49;98291.75;;;10.88;100.00
7026;BME280;3554;42.132;24.786;2023-04-01T04:47:16;98302.16;;;11.04;100.00
7026;BME280;3554;42.132;24.786;2023-04-01T04:49:42;98310.03;;;11.18;100.00
7026;BME280;3554;42.132;24.786;2023-04-01T04:52:09;98325.47;;;11.08;100.00
7026;BME280;3554;42.132;24.786;2023-04-01T04:54:36;98329.19;;;11.18;100.00
7026;BME280;3554;42.132;24.786;2023-04-01T04:57:03;98327.44;;;11.19;100.00
7026;BME280;3554;42.132;24.786;2023-04-01T04:59:30;98335.00;;;11.23;100.00
7026;BME280;3554;42.132;24.786;2023-04-01T05:01:58;98350.66;;;11.25;100.00
7026;BME280;3554;42.132;24.786;2023-04-01T05:04:25;98344.56;;;11.24;100.00
7026;BME280;3554;42.132;24.786;2023-04-01T05:06:52;98334.00;;;11.26;100.00
7026;BME280;3554;42.132;24.786;2023-04-01T05:09:19;98322.41;;;11.30;100.00
7026;BME280;3554;42.132;24.786;2023-04-01T05:11:46;98332.09;;;11.00;100.00
7026;BME280;3554;42.132;24.786;2023-04-01T05:14:13;98329.19;;;11.18;100.00
7026;BME280;3554;42.132;24.786;2023-04-01T05:16:40;98328.50;;;11.44;100.00
7026;BME280;3554;42.132;24.786;2023-04-01T05:19:08;98317.25;;;11.42;100.00
7026;BME280;3554;42.132;24.786;2023-04-01T05:21:35;98331.38;;;11.54;100.00
7026;BME280;3554;42.132;24.786;2023-04-01T05:24:02;98326.78;;;11.57;100.00
7026;BME280;3554;42.132;24.786;2023-04-01T05:26:29;98332.34;;;11.67;100.00
7026;BME280;3554;42.132;24.786;2023-04-01T05:28:56;98328.53;;;11.72;100.00
7026;BME280;3554;42.132;24.786;2023-04-01T05:31:22;98322.31;;;11.45;100.00
7026;BME280;3554;42.132;24.786;2023-04-01T05:33:50;98317.72;;;11.21;100.00
7026;BME280;3554;42.132;24.786;2023-04-01T05:36:20;98319.00;;;11.14;100.00
7026;BME280;3554;42.132;24.786;2023-04-01T05:38:47;98319.47;;;11.20;100.00
7026;BME280;3554;42.132;24.786;2023-04-01T05:41:14;98310.97;;;11.31;100.00
7026;BME280;3554;42.132;24.786;2023-04-01T05:43:42;98289.47;;;11.26;100.00
7026;BME280;3554;42.132;24.786;2023-04-01T05:46:09;98285.25;;;11.23;100.00
7026;BME280;3554;42.132;24.786;2023-04-01T05:48:36;98270.34;;;10.96;100.00
7026;BME280;3554;42.132;24.786;2023-04-01T05:51:03;98260.44;;;11.01;100.00
7026;BME280;3554;42.132;24.786;2023-04-01T05:53:32;98258.09;;;10.82;100.00
7026;BME280;3554;42.132;24.786;2023-04-01T05:56:02;98247.97;;;10.76;100.00
7026;BME280;3554;42.132;24.786;2023-04-01T05:58:29;98228.44;;;10.67;100.00
7026;BME280;3554;42.132;24.786;2023-04-01T06:01:00;98225.97;;;10.64;100.00
7026;BME280;3554;42.132;24.786;2023-04-01T06:03:27;98221.44;;;10.38;100.00
7026;BME280;3554;42.132;24.786;2023-04-01T06:05:54;98217.00;;;10.54;100.00
7026;BME280;3554;42.132;24.786;2023-04-01T06:08:21;98170.34;;;10.33;100.00
7026;BME280;3554;42.132;24.786;2023-04-01T06:11:01;98228.91;;;10.88;100.00
7026;BME280;3554;42.132;24.786;2023-04-01T06:13:43;98236.53;;;11.07;100.00
7026;BME280;3554;42.132;24.786;2023-04-01T06:16:20;98235.00;;;11.31;100.00
7026;BME280;3554;42.132;24.786;2023-04-01T06:18:59;98213.88;;;11.20;100.00
7026;BME280;3554;42.132;24.786;2023-04-01T06:21:55;98197.41;;;11.04;100.00
7026;BME280;3554;42.132;24.786;2023-04-01T06:24:35;98193.03;;;11.04;100.00
7026;BME280;3554;42.132;24.786;2023-04-01T06:27:15;98197.81;;;10.98;100.00
7026;BME280;3554;42.132;24.786;2023-04-01T06:30:04;98184.06;;;10.94;100.00
7026;BME280;3554;42.132;24.786;2023-04-01T06:32:54;98186.94;;;10.90;100.00
7026;BME280;3554;42.132;24.786;2023-04-01T06:35:34;98199.09;;;11.19;100.00
7026;BME280;3554;42.132;24.786;2023-04-01T06:38:16;98193.88;;;11.19;100.00
7026;BME280;3554;42.132;24.786;2023-04-01T06:44:13;98183.88;;;10.97;100.00
7026;BME280;3554;42.132;24.786;2023-04-01T06:46:45;98181.34;;;10.96;100.00
7026;BME280;3554;42.132;24.786;2023-04-01T06:49:33;98178.63;;;11.11;100.00
7026;BME280;3554;42.132;24.786;2023-04-01T06:52:11;98181.44;;;11.08;100.00
7026;BME280;3554;42.132;24.786;2023-04-01T06:54:45;98132.88;;;11.17;100.00
7026;BME280;3554;42.132;24.786;2023-04-01T06:57:20;98172.09;;;11.59;100.00
7026;BME280;3554;42.132;24.786;2023-04-01T06:59:52;98180.25;;;11.95;100.00
7026;BME280;3554;42.132;24.786;2023-04-01T07:02:26;98188.53;;;12.02;100.00
7026;BME280;3554;42.132;24.786;2023-04-01T07:04:56;98207.53;;;12.05;100.00
7026;BME280;3554;42.132;24.786;2023-04-01T07:07:31;98200.66;;;12.17;100.00
7026;BME280;3554;42.132;24.786;2023-04-01T07:10:03;98197.22;;;12.29;100.00
7026;BME280;3554;42.132;24.786;2023-04-01T07:12:38;98186.53;;;12.19;100.00
7026;BME280;3554;42.132;24.786;2023-04-01T07:15:16;98186.84;;;12.27;100.00
7026;BME280;3554;42.132;24.786;2023-04-01T07:17:47;98185.28;;;12.37;100.00
7026;BME280;3554;42.132;24.786;2023-04-01T07:20:20;98188.53;;;12.41;100.00
7026;BME280;3554;42.132;24.786;2023-04-01T07:22:53;98178.47;;;12.35;100.00
7026;BME280;3554;42.132;24.786;2023-04-01T07:25:24;98166.25;;;12.21;100.00
7026;BME280;3554;42.132;24.786;2023-04-01T07:27:53;98168.81;;;12.35;100.00
7026;BME280;3554;42.132;24.786;2023-04-01T07:30:27;98158.94;;;12.51;100.00
7026;BME280;3554;42.132;24.786;2023-04-01T07:33:03;98154.31;;;12.55;100.00
7026;BME280;3554;42.132;24.786;2023-04-01T07:35:35;98160.41;;;12.43;100.00
7026;BME280;3554;42.132;24.786;2023-04-01T07:38:12;98153.69;;;12.51;100.00
7026;BME280;3554;42.132;24.786;2023-04-01T07:40:47;98155.91;;;12.82;100.00
7026;BME280;3554;42.132;24.786;2023-04-01T07:43:25;98144.47;;;12.83;100.00
7026;BME280;3554;42.132;24.786;2023-04-01T07:46:05;98156.34;;;13.14;100.00
7026;BME280;3554;42.132;24.786;2023-04-01T07:48:38;98157.13;;;13.40;100.00
7026;BME280;3554;42.132;24.786;2023-04-01T07:51:11;98130.16;;;13.25;100.00
7026;BME280;3554;42.132;24.786;2023-04-01T07:53:46;98175.50;;;13.76;100.00
7026;BME280;3554;42.132;24.786;2023-04-01T07:56:21;98187.28;;;13.83;100.00
7026;BME280;3554;42.132;24.786;2023-04-01T07:58:58;98199.75;;;14.16;100.00
7026;BME280;3554;42.132;24.786;2023-04-01T08:01:33;98208.41;;;13.81;100.00
7026;BME280;3554;42.132;24.786;2023-04-01T08:04:30;98203.25;;;13.80;100.00
7026;BME280;3554;42.132;24.786;2023-04-01T08:07:07;98183.13;;;13.68;100.00
7026;BME280;3554;42.132;24.786;2023-04-01T08:09:43;98184.09;;;13.67;100.00
7026;BME280;3554;42.132;24.786;2023-04-01T08:12:21;98178.44;;;13.48;100.00
7026;BME280;3554;42.132;24.786;2023-04-01T08:15:01;98172.06;;;13.27;100.00
7026;BME280;3554;42.132;24.786;2023-04-01T08:17:36;98163.69;;;13.22;100.00
7026;BME280;3554;42.132;24.786;2023-04-01T08:20:25;98155.41;;;13.15;100.00
7026;BME280;3554;42.132;24.786;2023-04-01T08:22:58;98139.56;;;13.04;100.00
7026;BME280;3554;42.132;24.786;2023-04-01T08:25:28;98129.66;;;13.08;100.00
7026;BME280;3554;42.132;24.786;2023-04-01T08:27:59;98119.56;;;13.14;100.00
7026;BME280;3554;42.132;24.786;2023-04-01T08:30:37;98113.03;;;13.20;100.00
7026;BME280;3554;42.132;24.786;2023-04-01T08:33:11;98119.03;;;13.22;100.00
7026;BME280;3554;42.132;24.786;2023-04-01T08:35:45;98113.31;;;13.40;100.00
7026;BME280;3554;42.132;24.786;2023-04-01T08:38:18;98103.19;;;13.47;100.00
7026;BME280;3554;42.132;24.786;2023-04-01T08:40:56;98101.53;;;13.57;100.00
7026;BME280;3554;42.132;24.786;2023-04-01T08:49:34;98111.84;;;13.83;100.00
7026;BME280;3554;42.132;24.786;2023-04-01T08:52:22;98105.91;;;13.69;100.00
7026;BME280;3554;42.132;24.786;2023-04-01T08:55:31;98090.34;;;13.66;100.00
7026;BME280;3554;42.132;24.786;2023-04-01T08:58:16;98090.09;;;13.92;100.00
7026;BME280;3554;42.132;24.786;2023-04-01T09:00:50;98081.44;;;14.14;100.00
7026;BME280;3554;42.132;24.786;2023-04-01T09:03:37;98090.78;;;14.42;100.00
7026;BME280;3554;42.132;24.786;2023-04-01T09:09:15;98087.81;;;14.68;100.00
7026;BME280;3554;42.132;24.786;2023-04-01T09:12:03;98082.13;;;14.51;100.00
7026;BME280;3554;42.132;24.786;2023-04-01T09:15:01;98073.53;;;14.71;100.00
7026;BME280;3554;42.132;24.786;2023-04-01T09:17:51;98079.63;;;14.49;100.00
7026;BME280;3554;42.132;24.786;2023-04-01T09:20:46;98069.25;;;14.70;100.00
7026;BME280;3554;42.132;24.786;2023-04-01T09:23:57;98053.91;;;14.75;100.00
7026;BME280;3554;42.132;24.786;2023-04-01T09:29:50;98036.31;;;14.53;100.00
7026;BME280;3554;42.132;24.786;2023-04-01T09:32:46;98030.81;;;14.56;100.00
7026;BME280;3554;42.132;24.786;2023-04-01T09:35:22;98030.34;;;14.62;100.00
7026;BME280;3554;42.132;24.786;2023-04-01T09:37:54;98032.97;;;14.73;100.00
7026;BME280;3554;42.132;24.786;2023-04-01T09:40:37;98018.97;;;14.73;100.00
7026;BME280;3554;42.132;24.786;2023-04-01T09:43:40;98021.13;;;14.79;100.00
7026;BME280;3554;42.132;24.786;2023-04-01T09:46:23;98017.44;;;15.13;100.00
7026;BME280;3554;42.132;24.786;2023-04-01T09:52:10;98037.19;;;15.72;100.00
7026;BME280;3554;42.132;24.786;2023-04-01T09:54:54;98038.09;;;15.51;100.00
7026;BME280;3554;42.132;24.786;2023-04-01T09:57:58;98039.34;;;15.47;100.00
7026;BME280;3554;42.132;24.786;2023-04-01T10:03:58;98011.88;;;15.49;100.00
7026;BME280;3554;42.132;24.786;2023-04-01T10:06:45;98002.94;;;15.61;100.00
7026;BME280;3554;42.132;24.786;2023-04-01T10:15:38;97994.09;;;16.03;100.00
7026;BME280;3554;42.132;24.786;2023-04-01T10:21:56;97978.22;;;16.24;100.00
7026;BME280;3554;42.132;24.786;2023-04-01T10:30:54;97943.47;;;16.49;100.00
7026;BME280;3554;42.132;24.786;2023-04-01T10:36:47;97962.31;;;16.65;100.00
7026;BME280;3554;42.132;24.786;2023-04-01T10:39:37;97958.88;;;16.44;100.00
7026;BME280;3554;42.132;24.786;2023-04-01T10:42:26;97946.97;;;16.50;100.00
7026;BME280;3554;42.132;24.786;2023-04-01T10:48:22;97916.88;;;16.81;100.00
7026;BME280;3554;42.132;24.786;2023-04-01T10:51:04;97894.03;;;16.31;100.00
7026;BME280;3554;42.132;24.786;2023-04-01T10:53:40;97894.50;;;16.45;100.00
7026;BME280;3554;42.132;24.786;2023-04-01T10:56:39;97892.63;;;16.66;100.00
7026;BME280;3554;42.132;24.786;2023-04-01T11:05:39;97867.09;;;16.76;100.00
7026;BME280;3554;42.132;24.786;2023-04-01T11:08:46;97861.78;;;16.76;100.00
7026;BME280;3554;42.132;24.786;2023-04-01T11:17:32;97869.31;;;16.71;100.00
7026;BME280;3554;42.132;24.786;2023-04-01T11:20:27;97859.69;;;16.31;100.00
7026;BME280;3554;42.132;24.786;2023-04-01T11:23:29;97834.53;;;16.76;100.00
7026;BME280;3554;42.132;24.786;2023-04-01T11:26:08;97830.66;;;17.08;100.00
7026;BME280;3554;42.132;24.786;2023-04-01T11:29:01;97832.16;;;17.21;100.00
7026;BME280;3554;42.132;24.786;2023-04-01T11:31:39;97833.13;;;17.00;100.00
7026;BME280;3554;42.132;24.786;2023-04-01T11:34:19;97818.41;;;16.88;100.00
7026;BME280;3554;42.132;24.786;2023-04-01T11:36:57;97829.78;;;17.37;100.00
7026;BME280;3554;42.132;24.786;2023-04-01T11:39:34;97831.94;;;17.70;100.00
7026;BME280;3554;42.132;24.786;2023-04-01T11:42:16;97818.06;;;17.49;100.00
7026;BME280;3554;42.132;24.786;2023-04-01T11:44:51;97743.44;;;16.80;100.00
7026;BME280;3554;42.132;24.786;2023-04-01T11:47:48;97811.78;;;17.59;100.00
7026;BME280;3554;42.132;24.786;2023-04-01T11:50:26;97792.03;;;17.90;100.00
7026;BME280;3554;42.132;24.786;2023-04-01T11:53:15;97790.31;;;17.99;100.00
7026;BME280;3554;42.132;24.786;2023-04-01T11:55:59;97779.97;;;18.05;100.00
7026;BME280;3554;42.132;24.786;2023-04-01T11:58:42;97794.06;;;18.06;100.00
7026;BME280;3554;42.132;24.786;2023-04-01T12:01:24;97786.28;;;17.95;100.00
7026;BME280;3554;42.132;24.786;2023-04-01T12:04:06;97794.19;;;18.04;100.00
7026;BME280;3554;42.132;24.786;2023-04-01T12:06:42;97795.00;;;18.05;100.00
7026;BME280;3554;42.132;24.786;2023-04-01T12:09:18;97788.69;;;17.88;100.00
7026;BME280;3554;42.132;24.786;2023-04-01T12:11:54;97783.78;;;17.93;100.00
7026;BME280;3554;42.132;24.786;2023-04-01T12:14:35;97772.28;;;18.12;100.00
7026;BME280;3554;42.132;24.786;2023-04-01T12:17:13;97782.03;;;18.11;100.00
7026;BME280;3554;42.132;24.786;2023-04-01T12:19:50;97761.78;;;17.93;100.00
7026;BME280;3554;42.132;24.786;2023-04-01T12:22:33;97755.41;;;18.13;100.00
7026;BME280;3554;42.132;24.786;2023-04-01T12:25:17;97732.69;;;18.10;100.00
7026;BME280;3554;42.132;24.786;2023-04-01T12:27:57;97735.28;;;18.20;100.00
7026;BME280;3554;42.132;24.786;2023-04-01T12:30:42;97727.06;;;18.41;100.00
7026;BME280;3554;42.132;24.786;2023-04-01T12:36:34;97722.19;;;18.89;100.00
7026;BME280;3554;42.132;24.786;2023-04-01T12:39:22;97709.22;;;19.03;100.00
7026;BME280;3554;42.132;24.786;2023-04-01T12:42:04;97710.47;;;18.91;100.00
7026;BME280;3554;42.132;24.786;2023-04-01T12:44:48;97698.59;;;19.03;100.00
7026;BME280;3554;42.132;24.786;2023-04-01T12:47:42;97684.59;;;19.11;100.00
7026;BME280;3554;42.132;24.786;2023-04-01T12:50:28;97697.47;;;19.06;100.00
7026;BME280;3554;42.132;24.786;2023-04-01T12:55:45;97681.50;;;18.98;100.00
7026;BME280;3554;42.132;24.786;2023-04-01T12:58:37;97684.63;;;18.93;100.00
7026;BME280;3554;42.132;24.786;2023-04-01T13:07:31;97693.34;;;18.86;100.00
7026;BME280;3554;42.132;24.786;2023-04-01T13:10:10;97700.78;;;18.82;100.00
7026;BME280;3554;42.132;24.786;2023-04-01T13:13:03;97686.75;;;19.15;100.00
7026;BME280;3554;42.132;24.786;2023-04-01T13:15:37;97689.78;;;19.46;100.00
7026;BME280;3554;42.132;24.786;2023-04-01T13:18:17;97682.97;;;19.44;100.00
7026;BME280;3554;42.132;24.786;2023-04-01T13:20:49;97685.13;;;19.40;100.00
7026;BME280;3554;42.132;24.786;2023-04-01T13:23:31;97697.31;;;19.33;100.00
7026;BME280;3554;42.132;24.786;2023-04-01T13:26:06;97688.81;;;19.30;100.00
7026;BME280;3554;42.132;24.786;2023-04-01T13:28:38;97697.31;;;19.33;100.00
7026;BME280;3554;42.132;24.786;2023-04-01T13:31:11;97694.56;;;19.17;100.00
7026;BME280;3554;42.132;24.786;2023-04-01T13:33:47;97722.91;;;18.73;100.00
7026;BME280;3554;42.132;24.786;2023-04-01T13:36:21;97765.06;;;18.32;100.00
7026;BME280;3554;42.132;24.786;2023-04-01T13:39:07;97818.50;;;17.35;100.00
7026;BME280;3554;42.132;24.786;2023-04-01T13:41:55;97806.28;;;16.86;100.00
7026;BME280;3554;42.132;24.786;2023-04-01T13:44:32;97815.63;;;16.71;100.00
7026;BME280;3554;42.132;24.786;2023-04-01T13:47:17;97812.66;;;16.64;100.00
7026;BME280;3554;42.132;24.786;2023-04-01T13:50:04;97835.53;;;16.45;100.00
7026;BME280;3554;42.132;24.786;2023-04-01T13:53:04;97859.47;;;16.43;100.00
7026;BME280;3554;42.132;24.786;2023-04-01T13:55:53;97892.94;;;16.33;100.00
7026;BME280;3554;42.132;24.786;2023-04-01T13:58:44;97893.59;;;16.26;100.00
7026;BME280;3554;42.132;24.786;2023-04-01T14:01:17;97877.47;;;16.19;100.00
7026;BME280;3554;42.132;24.786;2023-04-01T14:04:07;97894.22;;;15.78;100.00
7026;BME280;3554;42.132;24.786;2023-04-01T14:06:53;97931.72;;;15.30;100.00
7026;BME280;3554;42.132;24.786;2023-04-01T14:09:53;97928.94;;;15.11;100.00
7026;BME280;3554;42.132;24.786;2023-04-01T14:12:31;97922.91;;;14.88;100.00
7026;BME280;3554;42.132;24.786;2023-04-01T14:15:18;97932.63;;;14.87;100.00
7026;BME280;3554;42.132;24.786;2023-04-01T14:18:06;97927.59;;;15.16;100.00
7026;BME280;3554;42.132;24.786;2023-04-01T14:20:39;97946.34;;;15.34;100.00
7026;BME280;3554;42.132;24.786;2023-04-01T14:23:35;97936.56;;;15.56;100.00
7026;BME280;3554;42.132;24.786;2023-04-01T14:26:34;97945.31;;;15.98;100.00
7026;BME280;3554;42.132;24.786;2023-04-01T14:29:11;97936.41;;;15.99;100.00
7026;BME280;3554;42.132;24.786;2023-04-01T14:31:50;97933.34;;;16.24;100.00
7026;BME280;3554;42.132;24.786;2023-04-01T14:34:30;97922.63;;;16.26;100.00
7026;BME280;3554;42.132;24.786;2023-04-01T14:37:12;97921.41;;;16.30;100.00
7026;BME280;3554;42.132;24.786;2023-04-01T14:40:04;97906.72;;;16.37;100.00
7026;BME280;3554;42.132;24.786;2023-04-01T14:42:59;97894.16;;;16.29;100.00
7026;BME280;3554;42.132;24.786;2023-04-01T14:48:37;97885.81;;;15.94;100.00
7026;BME280;3554;42.132;24.786;2023-04-01T14:51:15;97890.03;;;15.96;100.00
7026;BME280;3554;42.132;24.786;2023-04-01T14:53:44;97893.09;;;16.01;100.00
7026;BME280;3554;42.132;24.786;2023-04-01T14:56:38;97901.31;;;16.08;100.00
7026;BME280;3554;42.132;24.786;2023-04-01T14:59:09;97910.66;;;16.22;100.00
7026;BME280;3554;42.132;24.786;2023-04-01T15:01:43;97903.59;;;16.22;100.00
7026;BME280;3554;42.132;24.786;2023-04-01T15:04:37;97915.00;;;15.92;100.00
7026;BME280;3554;42.132;24.786;2023-04-01T15:07:43;97895.28;;;15.66;100.00